Time;durP1;ratioP1;P1;durP2;ratioP2;P2;SDS_P1;SDS_P2;PMS_P1;PMS_P2;Temp;Humidity;BMP_temperature;BMP_pressure;BME280_temperature;BME280_humidity;BME280_pressure;Samples;Min_cycle;Max_cycle;Signal;HPM_P1;HPM_P2
2023/03/08 00:00:05;;;;;;;;;;;19.50;40.30;;;;;;5108128;28;19970;-66
2023/03/08 00:02:31;;;;;;;;;;;19.50;40.40;;;;;;5144072;27;19919;-66
2023/03/08 00:04:58;;;;;;;;;;;19.50;40.90;;;;;;5140849;27;19924;-70
2023/03/08 00:07:25;;;;;;;;;;;19.50;40.40;;;;;;5108315;27;19920;-69
2023/03/08 00:09:52;;;;;;;;;;;19.50;40.40;;;;;;5113632;28;19973;-66
2023/03/08 00:12:19;;;;;;;;;;;19.50;40.40;;;;;;5161776;27;19945;-63
2023/03/08 00:14:47;;;;;;;;;;;19.50;40.40;;;;;;5133980;27;20006;-69
2023/03/08 00:17:14;;;;;;;;;;;19.50;40.40;;;;;;5127574;27;19996;-67
2023/03/08 00:19:41;;;;;;;;;;;19.50;40.40;;;;;;5132344;27;20012;-70
2023/03/08 00:22:08;;;;;;;;;;;19.50;41.00;;;;;;5132348;27;19927;-65
2023/03/08 00:24:34;;;;;;;;;;;19.50;40.40;;;;;;5110911;27;19931;-68
2023/03/08 00:27:01;;;;;;;;;;;19.50;40.50;;;;;;5113540;27;19920;-66
2023/03/08 00:29:28;;;;;;;;;;;19.50;40.50;;;;;;5112036;28;19923;-68
2023/03/08 00:31:56;;;;;;;;;;;19.50;40.50;;;;;;5112924;28;19992;-69
2023/03/08 00:34:23;;;;;;;;;;;19.50;40.50;;;;;;5110647;28;19973;-67
2023/03/08 00:36:50;;;;;;;;;;;19.50;40.50;;;;;;5111530;28;19919;-71
2023/03/08 00:39:17;;;;;;;;;;;19.50;40.50;;;;;;5111328;28;19924;-67
2023/03/08 00:41:43;;;;;;;;;;;19.50;40.50;;;;;;5111740;28;19924;-68
2023/03/08 00:44:10;;;;;;;;;;;19.50;40.60;;;;;;5112492;28;19924;-68
2023/03/08 00:46:37;;;;;;;;;;;19.50;40.50;;;;;;5116388;27;19927;-65
2023/03/08 00:49:05;;;;;;;;;;;19.50;40.60;;;;;;5112849;28;19973;-70
2023/03/08 00:51:31;;;;;;;;;;;19.50;40.60;;;;;;5119044;27;19965;-70
2023/03/08 00:53:58;;;;;;;;;;;19.50;40.60;;;;;;5116624;27;19920;-67
2023/03/08 00:56:25;;;;;;;;;;;19.50;40.60;;;;;;5117825;27;19972;-65
2023/03/08 00:58:52;;;;;;;;;;;19.50;40.60;;;;;;5131867;27;19932;-68
2023/03/08 01:01:19;;;;;;;;;;;19.50;40.70;;;;;;5131519;27;19923;-68
2023/03/08 01:03:46;;;;;;;;;;;19.50;40.60;;;;;;5122479;27;19968;-68
2023/03/08 01:06:15;;;;;;;;;;;19.50;40.60;;;;;;5110980;27;19992;-69
2023/03/08 01:08:41;;;;;;;;;;;19.50;40.60;;;;;;5110854;28;20006;-66
2023/03/08 01:11:12;;;;;;;;;;;19.50;40.60;;;;;;5113961;27;19923;-64
2023/03/08 01:13:39;;;;;;;;;;;19.50;40.60;;;;;;5123585;27;19923;-67
2023/03/08 01:16:08;;;;;;;;;;;19.50;40.60;;;;;;5111781;27;19924;-69
2023/03/08 01:18:34;;;;;;;;;;;19.50;40.60;;;;;;5164809;27;19919;-69
2023/03/08 01:21:01;;;;;;;;;;;19.50;40.60;;;;;;5130943;27;19920;-68
2023/03/08 01:23:30;;;;;;;;;;;19.50;40.60;;;;;;5121257;27;19980;-66
2023/03/08 01:26:00;;;;;;;;;;;19.50;40.60;;;;;;5110617;28;19920;-66
2023/03/08 01:28:27;;;;;;;;;;;19.50;40.60;;;;;;5089869;28;19958;-68
2023/03/08 01:30:54;;;;;;;;;;;19.50;40.70;;;;;;5091663;28;19923;-66
2023/03/08 01:33:21;;;;;;;;;;;19.50;41.00;;;;;;5111467;28;20315;-71
2023/03/08 01:35:48;;;;;;;;;;;19.50;40.60;;;;;;5110621;28;19924;-67
2023/03/08 01:38:15;;;;;;;;;;;19.50;40.70;;;;;;5093539;28;20392;-70
2023/03/08 01:40:43;;;;;;;;;;;19.50;40.60;;;;;;5110333;28;20243;-69
2023/03/08 01:43:26;;;;;;;;;;;19.50;40.60;;;;;;5110410;27;19919;-68
2023/03/08 01:46:02;;;;;;;;;;;19.50;40.70;;;;;;5111414;28;19996;-69
2023/03/08 01:48:30;;;;;;;;;;;19.50;40.70;;;;;;5114674;27;19992;-65
2023/03/08 01:50:56;;;;;;;;;;;19.50;40.70;;;;;;5110729;28;19973;-70
2023/03/08 01:53:23;;;;;;;;;;;19.50;40.70;;;;;;5111088;27;20001;-69
2023/03/08 01:55:52;;;;;;;;;;;19.50;40.70;;;;;;5110256;28;19924;-71
2023/03/08 01:58:19;;;;;;;;;;;19.50;40.70;;;;;;5110052;27;19924;-67
2023/03/08 02:00:45;;;;;;;;;;;19.50;40.70;;;;;;5101726;28;20021;-71
2023/03/08 02:05:48;;;;;;;;;;;19.50;40.70;;;;;;5095588;22;19925;-70
2023/03/08 02:08:14;;;;;;;;;;;19.50;40.70;;;;;;5056423;28;19920;-71
2023/03/08 02:10:41;;;;;;;;;;;19.50;40.70;;;;;;5072233;28;19924;-71
2023/03/08 02:13:09;;;;;;;;;;;19.50;40.80;;;;;;5056844;28;19920;-71
2023/03/08 02:15:36;;;;;;;;;;;19.50;40.70;;;;;;5053596;28;19990;-71
2023/03/08 02:18:03;;;;;;;;;;;19.40;40.70;;;;;;5072902;28;19920;-71
2023/03/08 02:20:30;;;;;;;;;;;19.50;40.80;;;;;;5054013;28;19970;-71
2023/03/08 02:23:08;;;;;;;;;;;19.40;40.70;;;;;;5058060;28;19985;-70
2023/03/08 02:25:34;;;;;;;;;;;19.50;40.70;;;;;;5053964;28;20358;-70
2023/03/08 02:28:01;;;;;;;;;;;19.40;40.70;;;;;;5073775;28;19921;-71
2023/03/08 02:30:30;;;;;;;;;;;19.40;40.70;;;;;;5054207;28;20313;-71
2023/03/08 02:32:57;;;;;;;;;;;19.50;40.80;;;;;;5071673;28;19924;-71
2023/03/08 02:35:23;;;;;;;;;;;19.50;40.80;;;;;;5054129;28;19920;-71
2023/03/08 02:37:50;;;;;;;;;;;19.50;40.80;;;;;;5054226;28;19920;-71
2023/03/08 02:40:18;;;;;;;;;;;19.50;40.80;;;;;;5054966;28;20263;-72
2023/03/08 02:42:45;;;;;;;;;;;19.50;40.80;;;;;;5053827;28;19963;-72
2023/03/08 02:45:12;;;;;;;;;;;19.40;40.80;;;;;;5054642;28;20424;-71
2023/03/08 02:47:39;;;;;;;;;;;19.50;40.80;;;;;;5053540;28;19966;-71
2023/03/08 02:50:06;;;;;;;;;;;19.40;40.80;;;;;;5054001;28;20311;-71
2023/03/08 02:52:33;;;;;;;;;;;19.40;40.80;;;;;;5054360;28;19920;-71
2023/03/08 02:54:59;;;;;;;;;;;19.50;40.80;;;;;;5054433;28;19920;-72
2023/03/08 02:57:27;;;;;;;;;;;19.50;40.80;;;;;;5056675;28;19921;-71
2023/03/08 02:59:54;;;;;;;;;;;19.40;40.80;;;;;;5057720;28;20228;-71
2023/03/08 03:02:21;;;;;;;;;;;19.40;40.80;;;;;;5059969;28;20424;-71
2023/03/08 03:04:47;;;;;;;;;;;19.50;41.40;;;;;;5075602;28;20251;-71
2023/03/08 03:07:14;;;;;;;;;;;19.50;40.80;;;;;;5058243;28;19920;-71
2023/03/08 03:09:41;;;;;;;;;;;19.40;40.80;;;;;;5059728;28;19921;-71
2023/03/08 03:12:08;;;;;;;;;;;19.40;40.80;;;;;;5058086;28;19924;-71
2023/03/08 03:14:36;;;;;;;;;;;19.50;40.90;;;;;;5059646;28;20000;-71
2023/03/08 03:17:03;;;;;;;;;;;19.40;40.80;;;;;;5056894;28;19920;-71
2023/03/08 03:19:29;;;;;;;;;;;19.40;40.80;;;;;;5075483;28;19920;-71
2023/03/08 03:21:56;;;;;;;;;;;19.50;40.80;;;;;;5077238;28;20278;-71
2023/03/08 03:24:23;;;;;;;;;;;19.50;40.90;;;;;;5057168;28;19921;-71
2023/03/08 03:26:50;;;;;;;;;;;19.40;40.80;;;;;;5060255;28;19921;-72
2023/03/08 03:29:17;;;;;;;;;;;19.50;40.90;;;;;;5059473;28;19959;-71
2023/03/08 03:31:45;;;;;;;;;;;19.50;40.90;;;;;;5057291;28;19934;-71
2023/03/08 03:34:12;;;;;;;;;;;19.50;40.90;;;;;;5059139;28;19964;-71
2023/03/08 03:36:38;;;;;;;;;;;19.50;40.90;;;;;;5056493;28;19924;-72
2023/03/08 03:39:05;;;;;;;;;;;19.40;40.80;;;;;;5057790;28;19924;-71
2023/03/08 03:41:32;;;;;;;;;;;19.40;40.90;;;;;;5059161;28;19920;-71
2023/03/08 03:43:59;;;;;;;;;;;19.50;40.90;;;;;;5057257;28;19925;-71
2023/03/08 03:46:25;;;;;;;;;;;19.40;40.90;;;;;;5057380;28;19928;-71
2023/03/08 03:48:53;;;;;;;;;;;19.40;40.90;;;;;;5076892;28;19920;-71
2023/03/08 03:51:20;;;;;;;;;;;19.40;40.90;;;;;;5071801;28;19924;-71
2023/03/08 03:53:48;;;;;;;;;;;19.40;40.90;;;;;;5077762;28;19920;-71
2023/03/08 03:56:15;;;;;;;;;;;19.50;41.00;;;;;;5039183;28;19927;-71
2023/03/08 03:58:42;;;;;;;;;;;19.50;41.00;;;;;;5042426;28;19921;-71
2023/03/08 04:01:09;;;;;;;;;;;19.50;41.00;;;;;;5057090;28;20298;-71
2023/03/08 04:03:36;;;;;;;;;;;19.40;40.90;;;;;;5057789;28;19940;-71
2023/03/08 04:06:08;;;;;;;;;;;19.50;41.00;;;;;;5074683;28;20305;-71
2023/03/08 04:08:40;;;;;;;;;;;19.50;41.00;;;;;;5076720;28;19943;-71
2023/03/08 04:11:07;;;;;;;;;;;19.50;41.00;;;;;;5057162;28;19926;-72
2023/03/08 04:13:34;;;;;;;;;;;19.50;41.00;;;;;;5075311;28;19920;-72
2023/03/08 04:16:07;;;;;;;;;;;19.40;40.90;;;;;;5058231;28;19947;-72
2023/03/08 04:18:34;;;;;;;;;;;19.40;40.90;;;;;;5059224;28;19966;-72
2023/03/08 04:21:03;;;;;;;;;;;19.40;40.90;;;;;;5058293;28;19924;-72
2023/03/08 04:23:31;;;;;;;;;;;19.40;40.90;;;;;;5076464;28;19920;-72
2023/03/08 04:25:58;;;;;;;;;;;19.50;41.00;;;;;;5074984;28;19966;-72
2023/03/08 04:28:25;;;;;;;;;;;19.40;40.90;;;;;;5056942;28;19974;-72
2023/03/08 04:30:51;;;;;;;;;;;19.40;40.90;;;;;;5058174;28;19920;-71
2023/03/08 04:33:18;;;;;;;;;;;19.50;41.00;;;;;;5076332;28;19952;-71
2023/03/08 04:35:45;;;;;;;;;;;19.50;41.00;;;;;;5056837;28;19943;-71
2023/03/08 04:38:12;;;;;;;;;;;19.40;40.90;;;;;;5074698;28;19921;-71
2023/03/08 04:43:21;;;;;;;;;;;19.50;41.00;;;;;;5060130;28;19920;-71
2023/03/08 04:45:47;;;;;;;;;;;19.50;41.00;;;;;;5057042;28;19920;-71
2023/03/08 04:48:14;;;;;;;;;;;19.50;41.00;;;;;;5056235;28;19950;-71
2023/03/08 04:50:41;;;;;;;;;;;19.50;41.00;;;;;;5072816;28;20305;-71
2023/03/08 04:53:08;;;;;;;;;;;19.40;40.90;;;;;;5055859;28;20428;-71
2023/03/08 04:55:34;;;;;;;;;;;19.40;40.90;;;;;;5055719;28;19921;-71
2023/03/08 04:58:02;;;;;;;;;;;19.40;40.90;;;;;;5055896;28;20290;-70
2023/03/08 05:00:29;;;;;;;;;;;19.40;40.90;;;;;;5056109;28;19921;-71
2023/03/08 05:02:56;;;;;;;;;;;19.40;40.90;;;;;;5056057;28;19974;-71
2023/03/08 05:05:23;;;;;;;;;;;19.50;41.00;;;;;;5055701;28;19920;-71
2023/03/08 05:07:49;;;;;;;;;;;19.40;40.90;;;;;;5073168;28;19924;-71
2023/03/08 05:10:16;;;;;;;;;;;19.40;40.90;;;;;;5055750;28;19921;-71
2023/03/08 05:12:43;;;;;;;;;;;19.50;41.00;;;;;;5054714;28;19921;-71
2023/03/08 05:15:12;;;;;;;;;;;19.40;40.90;;;;;;5056101;28;19966;-71
2023/03/08 05:17:38;;;;;;;;;;;19.50;41.00;;;;;;5074691;28;19921;-71
2023/03/08 05:20:06;;;;;;;;;;;19.40;40.90;;;;;;5054898;28;19985;-71
2023/03/08 05:22:33;;;;;;;;;;;19.40;40.90;;;;;;5055893;28;19942;-71
2023/03/08 05:24:59;;;;;;;;;;;19.50;41.00;;;;;;5055096;28;20007;-71
2023/03/08 05:27:26;;;;;;;;;;;19.50;41.00;;;;;;5054710;28;19920;-71
2023/03/08 05:29:53;;;;;;;;;;;19.40;40.90;;;;;;5055166;28;19970;-71
2023/03/08 05:32:21;;;;;;;;;;;19.50;41.00;;;;;;5055039;28;19926;-71
2023/03/08 05:34:49;;;;;;;;;;;19.50;41.00;;;;;;5055176;28;19921;-72
2023/03/08 05:37:15;;;;;;;;;;;19.50;41.00;;;;;;5054636;28;19921;-71
2023/03/08 05:39:42;;;;;;;;;;;19.50;41.00;;;;;;5044256;28;19928;-71
2023/03/08 05:42:10;;;;;;;;;;;19.40;40.90;;;;;;5035313;28;19967;-71
2023/03/08 05:44:37;;;;;;;;;;;19.50;41.10;;;;;;5072895;28;19920;-71
2023/03/08 05:47:04;;;;;;;;;;;19.50;41.00;;;;;;5056192;28;19929;-71
2023/03/08 05:49:32;;;;;;;;;;;19.50;41.00;;;;;;5054543;28;19920;-71
2023/03/08 05:51:59;;;;;;;;;;;19.40;40.90;;;;;;5055462;28;19944;-71
2023/03/08 05:54:26;;;;;;;;;;;19.40;40.90;;;;;;5055226;28;19966;-71
2023/03/08 05:56:52;;;;;;;;;;;19.40;40.90;;;;;;5056691;28;19920;-71
2023/03/08 05:59:19;;;;;;;;;;;19.40;40.90;;;;;;5056228;28;19924;-71
2023/03/08 06:01:46;;;;;;;;;;;19.40;40.90;;;;;;5072315;28;19920;-71
2023/03/08 06:04:13;;;;;;;;;;;19.40;41.00;;;;;;5056551;28;19920;-71
2023/03/08 06:06:41;;;;;;;;;;;19.50;41.00;;;;;;5072733;28;19920;-71
2023/03/08 06:09:07;;;;;;;;;;;19.50;41.10;;;;;;5055937;28;20211;-71
2023/03/08 06:11:34;;;;;;;;;;;19.40;41.00;;;;;;5054961;28;19928;-72
2023/03/08 06:14:01;;;;;;;;;;;19.40;40.90;;;;;;5074000;28;19927;-71
2023/03/08 06:16:28;;;;;;;;;;;19.50;41.00;;;;;;5054085;28;20374;-71
2023/03/08 06:18:54;;;;;;;;;;;19.50;41.00;;;;;;5054220;28;19925;-71
2023/03/08 06:21:21;;;;;;;;;;;19.50;41.00;;;;;;5072153;28;19975;-60
2023/03/08 06:23:50;;;;;;;;;;;19.40;40.90;;;;;;5056248;28;19986;-71
2023/03/08 06:26:17;;;;;;;;;;;19.50;41.10;;;;;;5071477;28;19927;-71
2023/03/08 06:28:44;;;;;;;;;;;19.50;41.10;;;;;;5056703;28;19944;-71
2023/03/08 06:31:11;;;;;;;;;;;19.40;40.90;;;;;;5072209;28;19920;-71
2023/03/08 06:33:38;;;;;;;;;;;19.40;40.90;;;;;;5054053;28;19970;-72
2023/03/08 06:36:06;;;;;;;;;;;19.40;40.90;;;;;;5071599;28;19924;-71
2023/03/08 06:38:33;;;;;;;;;;;19.50;41.00;;;;;;5073419;28;19920;-71
2023/03/08 06:41:01;;;;;;;;;;;19.40;40.90;;;;;;5053535;28;19920;-71
2023/03/08 06:43:28;;;;;;;;;;;19.40;40.90;;;;;;5056647;28;19972;-71
2023/03/08 06:45:55;;;;;;;;;;;19.50;41.00;;;;;;5056193;28;19921;-71
2023/03/08 06:48:21;;;;;;;;;;;19.40;40.90;;;;;;5059568;28;19969;-71
2023/03/08 06:50:48;;;;;;;;;;;19.40;40.90;;;;;;5073082;28;19920;-71
2023/03/08 06:53:15;;;;;;;;;;;19.40;40.90;;;;;;5053824;28;19928;-71
2023/03/08 06:55:42;;;;;;;;;;;19.50;41.00;;;;;;5074252;28;19928;-71
2023/03/08 06:58:10;;;;;;;;;;;19.40;40.90;;;;;;5054010;28;19946;-71
2023/03/08 07:00:36;;;;;;;;;;;19.50;41.00;;;;;;5071161;28;19928;-66
2023/03/08 07:03:03;;;;;;;;;;;19.40;40.90;;;;;;5043954;28;19931;-63
2023/03/08 07:05:30;;;;;;;;;;;19.50;41.00;;;;;;5054951;28;19943;-63
2023/03/08 07:07:57;;;;;;;;;;;19.40;35.30;;;;;;5073365;28;19920;-64
2023/03/08 07:10:24;;;;;;;;;;;19.30;30.40;;;;;;5054521;28;19928;-64
2023/03/08 07:12:51;;;;;;;;;;;19.10;29.50;;;;;;5074132;28;19927;-75
2023/03/08 07:15:20;;;;;;;;;;;18.90;29.00;;;;;;5056067;28;19974;-73
2023/03/08 07:17:47;;;;;;;;;;;18.70;30.80;;;;;;5056032;28;19924;-73
2023/03/08 07:20:14;;;;;;;;;;;18.50;32.30;;;;;;5056649;28;20317;-72
2023/03/08 07:22:42;;;;;;;;;;;18.50;33.50;;;;;;5055634;28;19928;-72
2023/03/08 07:25:09;;;;;;;;;;;18.40;34.30;;;;;;5062432;28;19920;-71
2023/03/08 07:27:36;;;;;;;;;;;18.40;34.90;;;;;;5067723;28;19920;-71
2023/03/08 07:30:03;;;;;;;;;;;18.40;35.40;;;;;;5102579;28;19981;-71
2023/03/08 07:32:31;;;;;;;;;;;18.40;35.70;;;;;;5082470;28;19920;-71
2023/03/08 07:34:58;;;;;;;;;;;18.50;36.00;;;;;;5076817;28;19920;-72
2023/03/08 07:37:25;;;;;;;;;;;18.50;36.40;;;;;;5077400;28;19969;-72
2023/03/08 07:39:51;;;;;;;;;;;18.50;36.50;;;;;;5066799;28;19943;-73
2023/03/08 07:42:18;;;;;;;;;;;18.50;36.70;;;;;;5053818;28;20321;-73
2023/03/08 07:44:45;;;;;;;;;;;18.60;36.90;;;;;;5058517;28;20064;-73
2023/03/08 07:47:12;;;;;;;;;;;18.60;37.00;;;;;;5064796;28;19927;-72
2023/03/08 07:49:40;;;;;;;;;;;18.70;37.20;;;;;;5074367;28;19921;-72
2023/03/08 07:52:07;;;;;;;;;;;18.70;37.40;;;;;;5048306;28;20244;-71
2023/03/08 07:54:34;;;;;;;;;;;18.70;37.40;;;;;;5061829;28;19924;-71
2023/03/08 07:57:01;;;;;;;;;;;18.80;37.60;;;;;;5054256;28;19947;-72
2023/03/08 07:59:27;;;;;;;;;;;18.80;37.70;;;;;;5072329;28;20288;-71
2023/03/08 08:01:54;;;;;;;;;;;18.80;37.80;;;;;;5060912;28;19924;-72
2023/03/08 08:04:22;;;;;;;;;;;18.80;37.90;;;;;;5058462;28;19927;-72
2023/03/08 08:06:50;;;;;;;;;;;18.80;38.00;;;;;;5059693;28;19920;-73
2023/03/08 08:09:17;;;;;;;;;;;18.90;38.20;;;;;;5067641;28;19924;-72
2023/03/08 08:11:44;;;;;;;;;;;18.90;38.30;;;;;;5056257;28;19990;-73
2023/03/08 08:14:10;;;;;;;;;;;18.90;38.30;;;;;;5074889;28;20346;-73
2023/03/08 08:16:37;;;;;;;;;;;18.90;38.30;;;;;;5075789;28;19927;-73
2023/03/08 08:19:04;;;;;;;;;;;18.90;38.30;;;;;;5057755;28;19977;-74
2023/03/08 08:21:30;;;;;;;;;;;18.90;38.40;;;;;;5057469;28;19921;-69
2023/03/08 08:24:00;;;;;;;;;;;19.00;38.60;;;;;;5059441;28;20365;-70
2023/03/08 08:26:27;;;;;;;;;;;19.00;38.60;;;;;;5059335;28;19920;-67
2023/03/08 08:28:54;;;;;;;;;;;19.00;38.60;;;;;;5057336;28;19925;-65
2023/03/08 08:31:21;;;;;;;;;;;19.00;38.70;;;;;;5057292;28;19921;-68
2023/03/08 08:33:48;;;;;;;;;;;19.00;38.70;;;;;;5055302;28;19928;-66
2023/03/08 08:36:16;;;;;;;;;;;19.00;38.70;;;;;;5055134;28;20335;-66
2023/03/08 08:38:44;;;;;;;;;;;19.00;38.70;;;;;;5053938;28;19926;-65
2023/03/08 08:41:14;;;;;;;;;;;19.10;38.80;;;;;;5057232;28;19927;-71
2023/03/08 08:43:40;;;;;;;;;;;19.10;38.80;;;;;;5056900;28;20012;-72
2023/03/08 08:46:07;;;;;;;;;;;19.10;38.80;;;;;;5061274;28;19920;-70
2023/03/08 08:48:35;;;;;;;;;;;19.10;38.90;;;;;;5076100;28;19920;-69
2023/03/08 08:51:02;;;;;;;;;;;19.10;39.00;;;;;;5058278;28;19920;-70
2023/03/08 08:53:29;;;;;;;;;;;19.10;39.00;;;;;;5073461;28;19920;-71
2023/03/08 08:55:55;;;;;;;;;;;19.10;39.00;;;;;;5057181;28;19920;-70
2023/03/08 08:58:24;;;;;;;;;;;19.10;39.00;;;;;;5057235;28;19920;-70
2023/03/08 09:00:51;;;;;;;;;;;19.10;39.10;;;;;;5057442;28;19959;-71
2023/03/08 09:03:17;;;;;;;;;;;19.20;39.20;;;;;;5058080;28;19974;-72
2023/03/08 09:05:44;;;;;;;;;;;19.20;39.20;;;;;;5072074;28;19921;-71
2023/03/08 09:08:11;;;;;;;;;;;19.20;39.30;;;;;;5056702;28;19924;-70
2023/03/08 09:10:39;;;;;;;;;;;19.20;39.30;;;;;;5056481;28;19974;-70
2023/03/08 09:13:06;;;;;;;;;;;19.20;39.30;;;;;;5075986;28;20002;-71
2023/03/08 09:15:34;;;;;;;;;;;19.20;39.30;;;;;;5073920;28;19947;-73
2023/03/08 09:18:01;;;;;;;;;;;19.30;39.40;;;;;;5055254;28;19966;-72
2023/03/08 09:20:28;;;;;;;;;;;19.30;39.40;;;;;;5056507;28;19920;-65
2023/03/08 09:22:55;;;;;;;;;;;19.30;39.50;;;;;;5057970;28;19924;-72
2023/03/08 09:25:22;;;;;;;;;;;19.30;39.50;;;;;;5058740;28;19920;-70
2023/03/08 09:27:49;;;;;;;;;;;19.30;39.50;;;;;;5054342;28;20063;-71
2023/03/08 09:30:16;;;;;;;;;;;19.30;39.50;;;;;;5054097;28;19928;-59
2023/03/08 09:32:44;;;;;;;;;;;19.30;39.60;;;;;;5072852;28;19920;-71
2023/03/08 09:35:11;;;;;;;;;;;19.30;39.60;;;;;;5059861;28;19920;-71
2023/03/08 09:37:38;;;;;;;;;;;19.30;39.60;;;;;;5077451;28;19925;-73
2023/03/08 09:40:08;;;;;;;;;;;19.30;39.60;;;;;;5066536;28;19920;-59
2023/03/08 09:42:35;;;;;;;;;;;19.30;39.60;;;;;;5056436;28;19924;-72
2023/03/08 09:45:06;;;;;;;;;;;19.40;39.70;;;;;;5054524;28;19924;-72
2023/03/08 09:47:35;;;;;;;;;;;19.40;39.70;;;;;;5054112;28;19920;-67
2023/03/08 09:50:07;;;;;;;;;;;19.40;39.70;;;;;;5054746;28;19974;-73
2023/03/08 09:52:37;;;;;;;;;;;19.40;39.70;;;;;;5073368;28;19920;-73
2023/03/08 09:55:04;;;;;;;;;;;19.40;39.70;;;;;;5055027;28;19920;-74
2023/03/08 09:57:34;;;;;;;;;;;19.40;39.70;;;;;;5071816;28;19920;-73
2023/03/08 10:00:07;;;;;;;;;;;19.40;39.80;;;;;;5055648;28;19974;-71
2023/03/08 10:02:35;;;;;;;;;;;19.40;39.80;;;;;;5054540;28;19927;-70
2023/03/08 10:05:08;;;;;;;;;;;19.40;39.80;;;;;;5057581;28;20408;-71
2023/03/08 10:07:37;;;;;;;;;;;19.50;39.90;;;;;;5070795;28;19920;-72
2023/03/08 10:10:11;;;;;;;;;;;19.40;39.80;;;;;;5071420;28;19982;-71
2023/03/08 10:12:39;;;;;;;;;;;19.40;39.90;;;;;;5070826;28;19978;-71
2023/03/08 10:15:09;;;;;;;;;;;19.50;40.00;;;;;;5055463;28;19925;-73
2023/03/08 10:17:38;;;;;;;;;;;19.50;40.00;;;;;;5055262;28;19978;-67
2023/03/08 10:20:07;;;;;;;;;;;19.40;40.00;;;;;;5055840;28;19921;-69
2023/03/08 10:22:41;;;;;;;;;;;19.50;40.10;;;;;;5074160;28;19981;-70
2023/03/08 10:25:14;;;;;;;;;;;19.50;40.10;;;;;;5074644;28;19921;-70
2023/03/08 10:27:41;;;;;;;;;;;19.50;40.10;;;;;;5070508;28;19927;-74
2023/03/08 10:30:11;;;;;;;;;;;19.50;40.10;;;;;;5067273;28;19966;-73
2023/03/08 10:32:41;;;;;;;;;;;19.50;40.20;;;;;;5072117;28;19989;-72
2023/03/08 10:35:08;;;;;;;;;;;19.50;40.20;;;;;;5056841;28;19920;-72
2023/03/08 10:37:36;;;;;;;;;;;19.50;40.20;;;;;;5074491;28;19966;-71
2023/03/08 10:40:06;;;;;;;;;;;19.50;40.20;;;;;;5055002;28;19942;-72
2023/03/08 10:42:32;;;;;;;;;;;19.50;40.20;;;;;;5053959;28;19920;-72
2023/03/08 10:45:00;;;;;;;;;;;19.50;40.20;;;;;;5074232;28;19947;-59
2023/03/08 10:47:28;;;;;;;;;;;19.50;40.30;;;;;;5068822;28;19978;-72
2023/03/08 10:50:12;;;;;;;;;;;19.60;40.40;;;;;;5042094;28;19920;-72
2023/03/08 10:52:40;;;;;;;;;;;19.60;40.40;;;;;;5075085;28;19920;-71
2023/03/08 10:55:10;;;;;;;;;;;19.50;40.30;;;;;;5069482;28;19931;-74
2023/03/08 10:57:37;;;;;;;;;;;19.50;40.30;;;;;;5075928;28;19925;-73
2023/03/08 11:00:11;;;;;;;;;;;19.50;40.30;;;;;;5075257;28;19928;-73
2023/03/08 11:02:37;;;;;;;;;;;19.60;40.40;;;;;;5053706;28;19943;-73
2023/03/08 11:05:16;;;;;;;;;;;19.60;40.50;;;;;;5074379;28;19920;-73
2023/03/08 11:07:49;;;;;;;;;;;19.60;40.50;;;;;;5056384;28;20420;-72
2023/03/08 11:10:16;;;;;;;;;;;19.60;40.50;;;;;;5071935;28;19943;-70
2023/03/08 11:12:43;;;;;;;;;;;19.60;40.50;;;;;;5069891;28;20009;-69
2023/03/08 11:15:13;;;;;;;;;;;19.60;40.50;;;;;;5054675;28;19921;-71
2023/03/08 11:17:40;;;;;;;;;;;19.60;40.50;;;;;;5052175;28;19920;-69
2023/03/08 11:20:10;;;;;;;;;;;19.60;40.60;;;;;;5054965;28;19924;-67
2023/03/08 11:22:39;;;;;;;;;;;19.60;40.60;;;;;;5059034;28;19924;-71
2023/03/08 11:25:21;;;;;;;;;;;19.60;40.60;;;;;;5075571;28;19930;-71
2023/03/08 11:28:02;;;;;;;;;;;19.60;40.60;;;;;;5071294;28;19920;-71
2023/03/08 11:30:32;;;;;;;;;;;19.60;40.60;;;;;;5073533;28;19927;-73
2023/03/08 11:33:07;;;;;;;;;;;19.60;40.60;;;;;;5059748;28;19970;-75
2023/03/08 11:35:35;;;;;;;;;;;19.60;40.60;;;;;;5057392;28;19969;-74
2023/03/08 11:38:03;;;;;;;;;;;19.60;40.60;;;;;;5073375;28;20011;-75
2023/03/08 11:40:32;;;;;;;;;;;19.60;40.60;;;;;;5076449;28;19987;-75
2023/03/08 11:43:07;;;;;;;;;;;19.60;40.60;;;;;;5058186;28;19927;-74
2023/03/08 11:45:35;;;;;;;;;;;19.60;40.60;;;;;;5074080;28;20376;-73
2023/03/08 11:48:07;;;;;;;;;;;19.60;40.50;;;;;;5076400;28;19927;-74
2023/03/08 11:50:36;;;;;;;;;;;19.60;40.60;;;;;;5076146;28;19921;-73
2023/03/08 11:53:10;;;;;;;;;;;19.60;40.60;;;;;;5057195;28;20045;-75
2023/03/08 11:55:42;;;;;;;;;;;19.60;40.60;;;;;;5041870;28;19924;-74
2023/03/08 11:58:11;;;;;;;;;;;19.60;40.60;;;;;;5057398;28;19920;-72
2023/03/08 12:00:39;;;;;;;;;;;19.60;40.60;;;;;;5059248;28;19920;-72
2023/03/08 12:03:06;;;;;;;;;;;19.60;40.60;;;;;;5055948;28;19930;-73
2023/03/08 12:05:34;;;;;;;;;;;19.60;40.60;;;;;;5055097;28;19966;-67
2023/03/08 12:08:02;;;;;;;;;;;19.60;40.60;;;;;;5057413;28;19920;-74
2023/03/08 12:10:29;;;;;;;;;;;19.60;40.60;;;;;;5073798;28;19924;-74
2023/03/08 12:12:57;;;;;;;;;;;19.60;40.60;;;;;;5073120;28;19924;-70
2023/03/08 12:15:27;;;;;;;;;;;19.60;40.60;;;;;;5073773;28;20513;-73
2023/03/08 12:17:55;;;;;;;;;;;19.60;40.70;;;;;;5055641;28;19921;-72
2023/03/08 12:20:22;;;;;;;;;;;19.60;40.60;;;;;;5056862;28;19925;-72
2023/03/08 12:22:50;;;;;;;;;;;19.60;40.70;;;;;;5073804;28;19924;-72
2023/03/08 12:25:22;;;;;;;;;;;19.60;40.70;;;;;;5056185;28;20179;-72
2023/03/08 12:27:50;;;;;;;;;;;19.60;40.70;;;;;;5057530;28;20007;-73
2023/03/08 12:30:19;;;;;;;;;;;19.60;40.70;;;;;;5055263;28;19925;-73
2023/03/08 12:32:47;;;;;;;;;;;19.60;40.70;;;;;;5038386;28;19920;-72
2023/03/08 12:35:24;;;;;;;;;;;19.60;40.70;;;;;;5061845;28;19946;-74
2023/03/08 12:37:54;;;;;;;;;;;19.60;40.70;;;;;;5074232;28;19920;-73
2023/03/08 12:40:35;;;;;;;;;;;19.60;40.70;;;;;;5058110;28;19970;-72
2023/03/08 12:43:06;;;;;;;;;;;19.70;40.80;;;;;;5056316;28;19975;-71
2023/03/08 12:45:32;;;;;;;;;;;19.60;40.80;;;;;;5054737;28;19920;-71
2023/03/08 12:48:15;;;;;;;;;;;19.70;40.90;;;;;;5072931;28;19920;-70
2023/03/08 12:50:42;;;;;;;;;;;19.70;40.90;;;;;;5062220;28;19969;-69
2023/03/08 12:53:22;;;;;;;;;;;19.70;40.90;;;;;;5054360;28;19932;-68
2023/03/08 12:55:58;;;;;;;;;;;19.70;40.90;;;;;;5058009;28;19920;-69
2023/03/08 12:58:25;;;;;;;;;;;19.70;40.90;;;;;;5057530;28;19921;-70
2023/03/08 13:00:57;;;;;;;;;;;19.70;40.90;;;;;;5053792;28;19974;-70
2023/03/08 13:03:27;;;;;;;;;;;19.70;40.90;;;;;;5062918;28;19942;-69
2023/03/08 13:05:55;;;;;;;;;;;19.70;40.90;;;;;;5055612;28;19970;-69
2023/03/08 13:08:23;;;;;;;;;;;19.70;40.90;;;;;;5054805;28;19966;-69
2023/03/08 13:10:58;;;;;;;;;;;19.70;40.90;;;;;;5061605;28;19987;-69
2023/03/08 13:13:27;;;;;;;;;;;19.70;40.90;;;;;;5055704;28;19970;-69
2023/03/08 13:16:04;;;;;;;;;;;19.70;40.90;;;;;;5071155;28;19927;-68
2023/03/08 13:18:32;;;;;;;;;;;19.70;41.00;;;;;;5067345;28;20275;-70
2023/03/08 13:21:03;;;;;;;;;;;19.70;41.00;;;;;;5054058;28;19924;-70
2023/03/08 13:23:31;;;;;;;;;;;19.70;41.00;;;;;;5074145;28;19920;-70
2023/03/08 13:26:01;;;;;;;;;;;19.70;41.00;;;;;;5067519;28;19951;-71
2023/03/08 13:28:28;;;;;;;;;;;19.70;41.00;;;;;;5070724;28;19928;-69
2023/03/08 13:30:56;;;;;;;;;;;19.70;41.00;;;;;;5054227;28;19951;-70
2023/03/08 13:33:23;;;;;;;;;;;19.70;41.00;;;;;;5056000;28;19924;-69
2023/03/08 13:35:58;;;;;;;;;;;19.70;41.10;;;;;;5056561;28;19928;-67
2023/03/08 13:38:26;;;;;;;;;;;19.70;41.00;;;;;;5063810;28;19970;-69
2023/03/08 13:40:53;;;;;;;;;;;19.70;41.10;;;;;;5053525;28;20003;-68
2023/03/08 13:43:20;;;;;;;;;;;19.70;41.10;;;;;;5053762;28;19921;-68
2023/03/08 13:45:47;;;;;;;;;;;19.80;41.10;;;;;;5054693;28;19921;-70
2023/03/08 13:48:14;;;;;;;;;;;19.70;41.10;;;;;;5054123;28;19920;-69
2023/03/08 13:50:42;;;;;;;;;;;19.70;41.10;;;;;;5055758;28;19920;-72
2023/03/08 13:53:10;;;;;;;;;;;19.70;41.10;;;;;;5059865;28;19924;-69
2023/03/08 13:55:38;;;;;;;;;;;19.70;41.10;;;;;;5057704;28;19920;-62
2023/03/08 13:58:05;;;;;;;;;;;19.70;41.00;;;;;;5072996;28;19981;-70
2023/03/08 14:00:32;;;;;;;;;;;19.80;41.20;;;;;;5057124;28;19924;-70
2023/03/08 14:02:59;;;;;;;;;;;19.80;41.20;;;;;;5062230;28;19928;-70
2023/03/08 14:05:26;;;;;;;;;;;19.80;41.20;;;;;;5057703;28;19924;-69
2023/03/08 14:07:56;;;;;;;;;;;19.80;41.20;;;;;;5074540;28;19920;-67
2023/03/08 14:10:26;;;;;;;;;;;19.80;41.20;;;;;;5073664;28;19920;-68
2023/03/08 14:12:53;;;;;;;;;;;19.80;41.30;;;;;;5070743;28;19970;-66
2023/03/08 14:15:20;;;;;;;;;;;19.80;41.20;;;;;;5073051;28;19920;-68
2023/03/08 14:17:47;;;;;;;;;;;19.80;41.20;;;;;;5070599;28;19982;-70
2023/03/08 14:20:17;;;;;;;;;;;19.80;41.20;;;;;;5053791;28;19921;-68
2023/03/08 14:22:46;;;;;;;;;;;19.80;41.20;;;;;;5057317;28;20390;-69
2023/03/08 14:25:20;;;;;;;;;;;19.80;41.30;;;;;;5062241;28;19920;-67